Time;durP1;ratioP1;P1;durP2;ratioP2;P2;SDS_P1;SDS_P2;PMS_P1;PMS_P2;Temp;Humidity;BMP_temperature;BMP_pressure;BME280_temperature;BME280_humidity;BME280_pressure;Samples;Min_cycle;Max_cycle;Signal;HPM_P1;HPM_P2
2023/08/22 00:00:47;;;;;;;20.50;17.70;;;;;;;22.68;100.00;101213.64;110004;1240;59691;-77
2023/08/22 00:03:31;;;;;;;21.40;17.20;;;;;;;22.65;100.00;101210.64;109853;1241;63188;-77
2023/08/22 00:06:00;;;;;;;18.70;16.50;;;;;;;22.61;100.00;101208.65;109959;1242;58323;-77
2023/08/22 00:08:29;;;;;;;19.10;16.80;;;;;;;22.57;100.00;101207.50;110018;1241;58191;-76
2023/08/22 00:10:59;;;;;;;20.20;16.90;;;;;;;22.50;100.00;101207.30;110023;1240;73314;-76
2023/08/22 00:13:27;;;;;;;20.00;17.90;;;;;;;22.43;100.00;101209.45;109993;1241;71742;-76
2023/08/22 00:16:00;;;;;;;19.30;17.30;;;;;;;22.42;100.00;101211.16;109970;1241;61269;-77
2023/08/22 00:18:29;;;;;;;20.20;17.50;;;;;;;22.45;100.00;101212.16;109716;1245;62455;-76
2023/08/22 00:20:58;;;;;;;23.40;17.60;;;;;;;22.42;100.00;101213.76;109940;1242;58382;-77
2023/08/22 00:23:28;;;;;;;19.70;17.60;;;;;;;22.45;100.00;101212.03;109987;1242;60286;-77
2023/08/22 00:25:56;;;;;;;19.80;17.20;;;;;;;22.42;100.00;101217.52;109935;1240;74676;-78
2023/08/22 00:28:25;;;;;;;22.40;18.10;;;;;;;22.39;100.00;101215.44;110017;1241;62335;-77
2023/08/22 00:30:54;;;;;;;23.30;18.50;;;;;;;22.37;100.00;101215.98;109846;1245;59815;-77
2023/08/22 00:33:23;;;;;;;21.10;18.90;;;;;;;22.31;100.00;101219.46;109846;1245;63038;-76
2023/08/22 00:35:51;;;;;;;19.90;17.80;;;;;;;22.25;100.00;101216.65;109808;1243;63322;-76
2023/08/22 00:38:20;;;;;;;22.10;18.50;;;;;;;22.17;100.00;101212.54;109833;1243;58316;-76
2023/08/22 00:40:49;;;;;;;23.10;18.70;;;;;;;22.11;100.00;101213.22;109963;1242;63529;-76
2023/08/22 00:43:18;;;;;;;21.80;18.80;;;;;;;22.03;100.00;101216.59;109953;1241;71180;-77
2023/08/22 00:45:47;;;;;;;21.80;18.90;;;;;;;21.94;100.00;101214.77;109938;1241;70766;-77
2023/08/22 00:48:16;;;;;;;22.80;19.50;;;;;;;21.85;100.00;101212.59;109825;1244;62996;-76
2023/08/22 00:50:45;;;;;;;24.60;20.50;;;;;;;21.83;100.00;101211.29;109910;1242;57799;-77
2023/08/22 00:53:14;;;;;;;23.60;20.40;;;;;;;21.81;100.00;101210.58;109821;1244;58264;-76
2023/08/22 00:55:43;;;;;;;23.10;20.00;;;;;;;21.80;100.00;101211.84;109816;1241;63675;-76
2023/08/22 00:58:14;;;;;;;25.90;21.30;;;;;;;21.74;100.00;101210.66;109811;1241;71179;-76
2023/08/22 01:00:43;;;;;;;23.60;20.60;;;;;;;21.69;100.00;101213.63;109779;1240;70011;-76
2023/08/22 01:03:12;;;;;;;29.50;22.10;;;;;;;21.65;100.00;101215.02;109731;1243;71091;-77
2023/08/22 01:05:49;;;;;;;27.70;20.40;;;;;;;21.60;100.00;101218.39;109888;1242;63508;-76
2023/08/22 01:08:28;;;;;;;26.50;21.10;;;;;;;21.56;100.00;101218.86;109660;1244;58114;-76
2023/08/22 01:11:07;;;;;;;24.80;21.60;;;;;;;21.50;100.00;101217.64;109605;1245;63557;-76
2023/08/22 01:13:41;;;;;;;26.60;21.30;;;;;;;21.46;100.00;101218.09;109761;1242;60608;-76
2023/08/22 01:16:11;;;;;;;27.90;21.00;;;;;;;21.44;100.00;101214.73;109559;1244;59828;-76
2023/08/22 01:18:41;;;;;;;25.90;22.00;;;;;;;21.52;100.00;101218.30;109648;1243;73979;-77
2023/08/22 01:21:19;;;;;;;26.80;21.50;;;;;;;21.51;100.00;101220.50;109847;1242;62267;-76
2023/08/22 01:23:48;;;;;;;25.30;21.20;;;;;;;21.47;100.00;101220.28;109675;1244;61635;-76
2023/08/22 01:26:17;;;;;;;23.30;20.20;;;;;;;21.50;100.00;101217.27;109767;1243;62602;-77
2023/08/22 01:28:52;;;;;;;23.50;20.60;;;;;;;21.50;100.00;101222.40;109797;1241;72161;-76
2023/08/22 01:31:36;;;;;;;27.90;22.80;;;;;;;21.49;100.00;101217.00;109749;1244;59426;-77
2023/08/22 01:34:35;;;;;;;26.20;21.70;;;;;;;21.47;100.00;101217.49;109937;1242;62994;-76
2023/08/22 01:37:06;;;;;;;26.30;22.20;;;;;;;21.46;100.00;101216.20;109952;1242;62665;-77
2023/08/22 01:39:37;;;;;;;27.20;22.50;;;;;;;21.42;100.00;101214.27;109656;1240;61103;-77
2023/08/22 01:42:07;;;;;;;28.10;22.90;;;;;;;21.41;100.00;101210.63;109839;1241;63973;-77
2023/08/22 01:44:37;;;;;;;26.60;22.00;;;;;;;21.38;100.00;101210.80;109641;1241;71901;-77
2023/08/22 01:47:07;;;;;;;26.70;21.40;;;;;;;21.36;100.00;101206.95;109843;1242;59883;-76
2023/08/22 01:49:37;;;;;;;26.40;22.00;;;;;;;21.37;100.00;101204.52;109799;1241;62706;-77
2023/08/22 01:52:06;;;;;;;24.30;21.30;;;;;;;21.29;100.00;101204.81;109782;1244;57731;-77
2023/08/22 01:54:38;;;;;;;25.80;21.30;;;;;;;21.24;100.00;101205.54;109934;1241;60774;-76
2023/08/22 01:57:07;;;;;;;26.60;22.80;;;;;;;21.17;100.00;101208.27;109801;1241;73762;-77
2023/08/22 01:59:35;;;;;;;26.50;22.10;;;;;;;21.10;100.00;101206.78;109797;1240;70618;-76
2023/08/22 02:02:04;;;;;;;27.30;23.40;;;;;;;21.03;100.00;101210.87;109811;1245;60271;-77
2023/08/22 02:04:33;;;;;;;24.10;21.50;;;;;;;20.96;100.00;101213.48;109696;1245;62222;-77
2023/08/22 02:07:02;;;;;;;28.00;22.30;;;;;;;20.89;100.00;101218.79;109915;1242;57817;-77
2023/08/22 02:09:31;;;;;;;28.80;23.00;;;;;;;20.75;100.00;101216.73;109815;1244;58087;-76
2023/08/22 02:12:00;;;;;;;26.90;22.70;;;;;;;20.70;100.00;101223.45;109816;1241;62888;-76
2023/08/22 02:14:28;;;;;;;27.10;22.90;;;;;;;20.60;100.00;101225.63;109944;1241;72462;-76
2023/08/22 02:17:00;;;;;;;29.30;25.70;;;;;;;20.52;100.00;101218.88;109939;1242;60138;-76
2023/08/22 02:19:29;;;;;;;28.70;24.00;;;;;;;20.52;100.00;101221.76;109790;1241;73205;-76
2023/08/22 02:21:57;;;;;;;30.00;23.40;;;;;;;20.49;100.00;101221.88;109763;1245;62319;-76
2023/08/22 02:24:26;;;;;;;27.90;23.90;;;;;;;20.46;100.00;101223.30;109812;1245;58330;-76
2023/08/22 02:26:55;;;;;;;30.20;24.20;;;;;;;20.42;100.00;101218.36;109678;1241;62908;-77
2023/08/22 02:29:23;;;;;;;28.10;24.60;;;;;;;20.42;100.00;101220.48;109891;1241;70106;-76
2023/08/22 02:31:53;;;;;;;27.10;24.20;;;;;;;20.42;100.00;101218.89;109757;1242;70209;-76
2023/08/22 02:34:22;;;;;;;30.80;25.10;;;;;;;20.43;100.00;101221.98;109898;1241;73743;-75
2023/08/22 02:36:51;;;;;;;29.60;25.20;;;;;;;20.47;100.00;101216.95;109765;1241;63046;-76
2023/08/22 02:39:19;;;;;;;30.10;24.60;;;;;;;20.54;100.00;101216.02;109703;1244;60834;-76
2023/08/22 02:41:48;;;;;;;28.40;24.30;;;;;;;20.57;100.00;101220.31;109725;1240;65025;-76
2023/08/22 02:44:17;;;;;;;29.70;23.30;;;;;;;20.58;100.00;101216.42;109952;1242;60895;-76
2023/08/22 02:46:46;;;;;;;28.00;23.90;;;;;;;20.57;100.00;101219.81;109972;1240;59874;-76
2023/08/22 02:49:14;;;;;;;27.70;24.00;;;;;;;20.53;100.00;101221.37;109749;1241;72961;-76
2023/08/22 02:51:43;;;;;;;29.20;24.50;;;;;;;20.52;100.00;101221.23;109754;1244;57854;-76
2023/08/22 02:54:12;;;;;;;31.80;24.70;;;;;;;20.53;100.00;101224.23;109780;1241;57788;-76
2023/08/22 02:56:41;;;;;;;28.50;25.20;;;;;;;20.53;100.00;101227.23;109910;1241;74278;-76
2023/08/22 02:59:09;;;;;;;27.60;24.00;;;;;;;20.51;100.00;101231.15;109878;1241;62478;-77
2023/08/22 03:01:38;;;;;;;31.10;24.80;;;;;;;20.48;100.00;101230.24;109759;1241;70534;-76
2023/08/22 03:04:07;;;;;;;27.50;24.10;;;;;;;20.48;100.00;101228.15;109794;1241;63528;-77
2023/08/22 03:06:37;;;;;;;26.90;24.10;;;;;;;20.49;100.00;101227.00;109780;1242;61737;-76
2023/08/22 03:09:07;;;;;;;29.30;24.20;;;;;;;20.47;100.00;101225.13;109824;1243;60437;-76
2023/08/22 03:11:36;;;;;;;29.90;24.20;;;;;;;20.46;100.00;101224.85;109811;1241;73881;-76
2023/08/22 03:14:07;;;;;;;29.00;24.00;;;;;;;20.41;100.00;101225.16;109815;1244;62111;-77
2023/08/22 03:16:36;;;;;;;28.60;24.50;;;;;;;20.42;100.00;101233.36;109710;1240;69287;-77
2023/08/22 03:19:05;;;;;;;31.60;24.20;;;;;;;20.44;100.00;101230.11;109856;1238;75010;-77
2023/08/22 03:21:34;;;;;;;33.90;25.40;;;;;;;20.46;100.00;101235.20;109850;1241;58359;-76
2023/08/22 03:24:04;;;;;;;30.70;24.10;;;;;;;20.49;100.00;101236.33;109732;1241;60954;-77
2023/08/22 03:26:32;;;;;;;29.60;24.30;;;;;;;20.51;100.00;101234.40;109802;1241;74911;-76
2023/08/22 03:29:02;;;;;;;31.50;25.70;;;;;;;20.54;100.00;101236.34;109637;1245;71844;-77
2023/08/22 03:31:32;;;;;;;29.20;23.90;;;;;;;20.58;100.00;101235.57;109700;1241;72596;-76
2023/08/22 03:34:01;;;;;;;32.50;25.40;;;;;;;20.59;100.00;101237.03;109839;1240;65079;-76
2023/08/22 03:36:31;;;;;;;32.60;27.10;;;;;;;20.68;100.00;101238.20;109789;1244;58321;-76
2023/08/22 03:39:02;;;;;;;32.30;25.00;;;;;;;20.84;100.00;101235.40;109751;1244;61190;-76
2023/08/22 03:41:31;;;;;;;59.30;41.70;;;;;;;20.94;100.00;101232.26;109779;1242;73940;-78
2023/08/22 03:44:00;;;;;;;29.90;22.80;;;;;;;20.99;100.00;101237.36;109769;1241;71923;-77
2023/08/22 03:46:29;;;;;;;30.50;24.70;;;;;;;20.92;100.00;101240.52;109793;1241;60268;-77
2023/08/22 03:49:08;;;;;;;28.00;22.40;;;;;;;20.88;100.00;101240.16;109859;1241;73804;-77
2023/08/22 03:51:39;;;;;;;30.30;23.60;;;;;;;20.83;100.00;101243.80;109718;1242;61942;-77
2023/08/22 03:54:08;;;;;;;30.60;23.80;;;;;;;20.82;100.00;101246.59;109618;1242;59703;-77
2023/08/22 03:56:36;;;;;;;27.70;23.60;;;;;;;20.85;100.00;101245.06;109750;1241;74141;-77
2023/08/22 03:59:06;;;;;;;30.10;23.30;;;;;;;20.90;100.00;101247.71;109635;1240;61154;-77
2023/08/22 04:01:35;;;;;;;27.70;23.90;;;;;;;20.91;100.00;101241.77;109789;1240;70482;-77
2023/08/22 04:04:03;;;;;;;31.40;23.00;;;;;;;20.93;100.00;101249.65;109723;1241;74205;-77
2023/08/22 04:06:32;;;;;;;29.20;23.70;;;;;;;20.90;100.00;101249.25;109709;1242;57763;-77
2023/08/22 04:09:01;;;;;;;27.90;22.50;;;;;;;20.88;100.00;101250.91;109642;1241;58207;-77
2023/08/22 04:11:30;;;;;;;35.00;22.50;;;;;;;20.93;100.00;101254.80;109645;1240;63624;-77
2023/08/22 04:13:59;;;;;;;29.80;22.50;;;;;;;20.99;100.00;101255.63;109617;1241;61639;-77
2023/08/22 04:16:28;;;;;;;33.80;23.40;;;;;;;21.02;100.00;101256.49;109660;1241;61169;-77
2023/08/22 04:18:56;;;;;;;34.50;23.40;;;;;;;21.08;100.00;101260.05;109544;1241;73560;-76
2023/08/22 04:21:25;;;;;;;26.30;23.10;;;;;;;21.18;100.00;101263.29;109743;1241;62459;-77
2023/08/22 04:23:56;;;;;;;31.60;23.50;;;;;;;21.27;100.00;101266.86;109789;1240;57788;-76
2023/08/22 04:26:24;;;;;;;32.30;26.30;;;;;;;21.42;100.00;101272.05;109873;1242;74236;-77
2023/08/22 04:28:54;;;;;;;29.50;22.70;;;;;;;21.56;100.00;101272.23;109674;1241;60997;-77
2023/08/22 04:31:23;;;;;;;33.40;23.70;;;;;;;21.75;100.00;101279.02;109796;1241;69108;-77
2023/08/22 04:33:52;;;;;;;30.20;23.50;;;;;;;21.84;100.00;101283.33;109907;1242;73501;-76
2023/08/22 04:36:21;;;;;;;29.80;23.60;;;;;;;21.91;100.00;101287.87;109745;1242;62920;-76
2023/08/22 04:38:49;;;;;;;33.50;21.50;;;;;;;21.96;100.00;101292.56;109785;1241;60517;-76
2023/08/22 04:41:20;;;;;;;28.70;23.10;;;;;;;22.13;100.00;101289.88;109799;1240;65430;-76
2023/08/22 04:44:19;;;;;;;26.90;22.30;;;;;;;22.16;100.00;101287.94;109804;1240;61541;-77
2023/08/22 04:46:48;;;;;;;28.20;22.30;;;;;;;22.17;100.00;101292.20;109770;1239;59951;-75
2023/08/22 04:49:17;;;;;;;27.60;22.10;;;;;;;22.18;100.00;101292.29;109640;1241;62677;-76
2023/08/22 04:51:46;;;;;;;32.20;24.00;;;;;;;22.20;100.00;101297.77;109752;1241;62325;-76
2023/08/22 04:54:15;;;;;;;37.00;24.70;;;;;;;22.23;100.00;101298.52;109762;1242;58313;-76
2023/08/22 04:56:44;;;;;;;30.10;23.00;;;;;;;22.27;100.00;101299.46;109619;1244;63555;-76
2023/08/22 04:59:13;;;;;;;26.70;20.70;;;;;;;22.34;100.00;101300.92;109865;1240;72157;-76
2023/08/22 05:01:41;;;;;;;31.60;21.40;;;;;;;22.42;100.00;101303.02;109785;1240;70762;-76
2023/08/22 05:04:10;;;;;;;32.40;23.70;;;;;;;22.50;100.00;101303.51;109770;1241;74096;-76
2023/08/22 05:06:39;;;;;;;28.90;22.40;;;;;;;22.56;100.00;101305.19;109768;1242;58301;-77
2023/08/22 05:09:09;;;;;;;26.50;21.30;;;;;;;22.64;100.00;101300.84;109776;1241;59568;-77
2023/08/22 05:11:39;;;;;;;26.30;22.00;;;;;;;22.76;100.00;101303.66;109774;1241;64092;-76
2023/08/22 05:14:09;;;;;;;27.80;21.10;;;;;;;22.87;100.00;101302.90;109752;1241;61430;-77
2023/08/22 05:16:39;;;;;;;33.70;22.50;;;;;;;23.04;100.00;101304.63;109754;1241;69578;-76
2023/08/22 05:19:08;;;;;;;28.90;21.20;;;;;;;23.23;100.00;101302.76;109762;1241;73541;-77
2023/08/22 05:21:37;;;;;;;32.50;22.00;;;;;;;23.36;100.00;101308.58;109666;1244;58285;-77
2023/08/22 05:24:07;;;;;;;32.20;22.60;;;;;;;23.45;100.00;101312.46;109798;1240;58344;-78
2023/08/22 05:26:36;;;;;;;30.40;20.00;;;;;;;23.62;100.00;101309.22;109711;1244;62733;-76
2023/08/22 05:29:05;;;;;;;30.50;21.30;;;;;;;23.82;100.00;101305.42;109671;1241;72194;-76
2023/08/22 05:31:33;;;;;;;25.40;18.70;;;;;;;23.97;100.00;101303.45;109817;1241;70787;-76
2023/08/22 05:34:02;;;;;;;25.30;18.80;;;;;;;24.08;100.00;101309.39;109767;1241;64523;-77
2023/08/22 05:36:32;;;;;;;23.00;18.30;;;;;;;24.29;100.00;101310.26;109780;1241;62888;-77
2023/08/22 05:39:00;;;;;;;22.90;18.30;;;;;;;24.49;100.00;101311.34;109710;1241;60505;-77
2023/08/22 05:41:29;;;;;;;19.70;17.60;;;;;;;24.56;100.00;101318.98;109810;1240;74983;-77
2023/08/22 05:43:58;;;;;;;23.40;18.20;;;;;;;24.65;100.00;101323.38;109802;1240;72630;-76
2023/08/22 05:46:28;;;;;;;23.30;18.20;;;;;;;24.65;100.00;101317.96;109830;1241;59345;-76
2023/08/22 05:48:58;;;;;;;21.30;16.10;;;;;;;24.75;100.00;101318.56;109687;1241;72780;-77
2023/08/22 05:51:26;;;;;;;22.90;18.10;;;;;;;24.81;100.00;101312.55;109762;1241;64148;-77
2023/08/22 05:53:56;;;;;;;24.60;18.20;;;;;;;24.89;100.00;101316.29;109803;1241;60466;-78
2023/08/22 05:56:24;;;;;;;23.40;18.00;;;;;;;24.93;100.00;101312.84;109747;1241;66153;-78
2023/08/22 05:58:53;;;;;;;21.20;16.00;;;;;;;24.99;100.00;101312.11;109761;1240;61010;-77
2023/08/22 06:01:22;;;;;;;21.60;16.90;;;;;;;25.06;100.00;101316.71;109777;1241;59818;-77
2023/08/22 06:03:52;;;;;;;23.20;17.60;;;;;;;25.06;100.00;101316.52;109670;1241;62857;-77
2023/08/22 06:06:21;;;;;;;21.70;18.50;;;;;;;25.05;100.00;101313.23;109790;1241;57834;-76
2023/08/22 06:08:50;;;;;;;24.30;18.20;;;;;;;25.14;100.00;101316.61;109787;1241;58309;-77
2023/08/22 06:11:19;;;;;;;27.70;18.80;;;;;;;25.18;100.00;101316.89;109844;1240;62786;-78
2023/08/22 06:13:50;;;;;;;21.60;17.40;;;;;;;25.30;100.00;101315.05;109640;1241;71375;-78
2023/08/22 06:16:19;;;;;;;24.30;17.40;;;;;;;25.41;100.00;101319.17;109662;1241;69990;-76
2023/08/22 06:18:47;;;;;;;21.30;16.60;;;;;;;25.51;100.00;101316.64;109742;1241;74086;-77
2023/08/22 06:21:16;;;;;;;22.70;17.10;;;;;;;25.60;100.00;101318.95;109850;1241;57785;-77
2023/08/22 06:23:45;;;;;;;22.40;17.50;;;;;;;25.65;100.00;101317.92;109760;1241;59960;-77
2023/08/22 06:26:15;;;;;;;23.10;17.70;;;;;;;25.68;100.00;101317.44;109752;1240;74086;-77
2023/08/22 06:28:46;;;;;;;21.00;17.70;;;;;;;25.60;100.00;101315.01;109755;1240;61972;-77
2023/08/22 06:31:15;;;;;;;24.00;17.20;;;;;;;25.68;100.00;101307.56;109757;1241;70403;-78
2023/08/22 06:33:43;;;;;;;19.40;17.10;;;;;;;25.81;100.00;101311.51;109749;1241;65425;-77
2023/08/22 06:36:12;;;;;;;23.30;18.20;;;;;;;25.92;100.00;101310.58;109739;1241;58505;-78
2023/08/22 06:38:41;;;;;;;22.90;17.00;;;;;;;26.09;100.00;101307.63;109790;1243;57749;-78
2023/08/22 06:41:10;;;;;;;24.10;18.20;;;;;;;26.16;100.00;101306.95;109760;1241;74330;-77
2023/08/22 06:43:39;;;;;;;20.80;17.70;;;;;;;26.29;100.00;101302.73;109748;1240;71673;-77
2023/08/22 06:46:08;;;;;;;21.70;16.90;;;;;;;26.42;100.00;101302.20;109917;1241;59723;-77
2023/08/22 06:48:37;;;;;;;20.90;17.50;;;;;;;26.56;100.00;101298.86;109798;1243;72754;-77
2023/08/22 06:51:10;;;;;;;21.20;17.20;;;;;;;26.69;100.00;101304.09;109557;1243;63737;-79
2023/08/22 06:53:38;;;;;;;20.80;17.10;;;;;;;26.74;100.00;101302.28;109922;1241;61430;-77
2023/08/22 06:56:08;;;;;;;20.30;16.70;;;;;;;26.77;100.00;101301.63;109878;1240;72946;-78
2023/08/22 06:58:37;;;;;;;22.10;17.00;;;;;;;26.78;100.00;101298.13;109924;1240;72760;-77
2023/08/22 07:01:07;;;;;;;21.40;17.20;;;;;;;26.72;100.00;101295.31;109785;1241;69578;-78
2023/08/22 07:03:36;;;;;;;21.20;16.70;;;;;;;26.87;100.00;101292.45;109844;1241;74982;-77
2023/08/22 07:06:05;;;;;;;20.80;16.00;;;;;;;27.05;100.00;101289.45;109936;1241;57704;-77
2023/08/22 07:08:34;;;;;;;22.90;17.10;;;;;;;27.20;100.00;101289.46;109753;1241;60737;-77
2023/08/22 07:11:04;;;;;;;20.60;16.70;;;;;;;27.33;100.00;101287.64;109955;1241;63375;-77
2023/08/22 07:13:33;;;;;;;23.30;16.10;;;;;;;27.45;100.00;101289.16;109748;1240;63229;-77
2023/08/22 07:16:03;;;;;;;21.00;16.40;;;;;;;27.56;100.00;101289.05;109934;1240;70738;-77
2023/08/22 07:18:31;;;;;;;21.10;16.80;;;;;;;27.60;100.00;101286.24;109859;1240;74959;-77
2023/08/22 07:21:07;;;;;;;20.10;16.20;;;;;;;27.76;100.00;101286.08;109843;1242;58338;-77
2023/08/22 07:23:36;;;;;;;20.00;16.50;;;;;;;27.84;100.00;101286.92;109882;1241;60979;-77
2023/08/22 07:26:04;;;;;;;19.40;16.20;;;;;;;27.95;100.00;101287.30;109545;1241;65059;-77
2023/08/22 07:28:33;;;;;;;19.40;15.40;;;;;;;28.05;100.00;101291.81;109755;1241;63719;-78
2023/08/22 07:31:06;;;;;;;20.20;16.10;;;;;;;28.17;100.00;101292.89;109741;1242;59171;-77
2023/08/22 07:33:35;;;;;;;25.80;16.30;;;;;;;28.08;100.00;101292.55;109777;1240;72003;-78
2023/08/22 07:36:04;;;;;;;19.20;15.80;;;;;;;28.18;100.00;101288.80;109797;1242;58344;-78
2023/08/22 07:38:33;;;;;;;22.80;15.50;;;;;;;28.28;100.00;101290.81;109873;1241;57792;-77
2023/08/22 07:41:02;;;;;;;18.70;15.50;;;;;;;28.32;100.00;101286.18;109881;1241;63519;-78
2023/08/22 07:43:31;;;;;;;20.40;15.60;;;;;;;28.41;100.00;101280.77;109751;1241;63185;-78
2023/08/22 07:45:59;;;;;;;19.00;15.10;;;;;;;28.49;100.00;101284.98;109868;1240;61790;-78
2023/08/22 07:48:28;;;;;;;18.60;15.40;;;;;;;28.54;100.00;101280.33;109751;1241;64505;-78
2023/08/22 07:50:57;;;;;;;18.70;14.80;;;;;;;28.47;100.00;101278.67;109896;1242;58350;-78
2023/08/22 07:53:26;;;;;;;18.30;15.00;;;;;;;28.44;100.00;101276.05;109323;1245;336180;-77
2023/08/22 07:55:55;;;;;;;19.20;14.60;;;;;;;28.49;100.00;101268.45;109804;1241;64545;-78
2023/08/22 07:58:24;;;;;;;16.00;14.40;;;;;;;28.57;100.00;101268.75;109885;1240;71947;-77
2023/08/22 08:00:53;;;;;;;16.80;14.30;;;;;;;28.65;100.00;101260.88;109797;1241;61096;-78
2023/08/22 08:03:21;;;;;;;17.30;13.30;;;;;;;28.79;100.00;101262.80;109912;1241;74033;-77
2023/08/22 08:05:50;;;;;;;20.20;14.00;;;;;;;28.89;100.00;101263.77;109894;1242;60939;-77
2023/08/22 08:08:19;;;;;;;16.90;12.90;;;;;;;28.91;99.95;101257.52;109827;1242;58295;-77
2023/08/22 08:10:48;;;;;;;17.30;13.70;;;;;;;29.03;99.00;101263.52;109936;1242;64076;-77
2023/08/22 08:13:17;;;;;;;16.10;11.90;;;;;;;29.10;98.26;101260.45;109923;1242;60674;-78
2023/08/22 08:15:46;;;;;;;14.60;12.40;;;;;;;29.23;96.74;101259.87;109806;1244;59827;-76
2023/08/22 08:18:16;;;;;;;14.60;11.40;;;;;;;29.26;96.37;101263.12;109868;1241;72882;-77
2023/08/22 08:20:45;;;;;;;13.80;10.80;;;;;;;29.29;95.52;101255.92;109867;1241;61009;-78
2023/08/22 08:23:14;;;;;;;16.80;11.80;;;;;;;29.43;94.50;101256.27;109880;1241;58135;-78
2023/08/22 08:25:43;;;;;;;12.00;10.80;;;;;;;29.49;91.46;101260.30;109955;1241;63621;-78
2023/08/22 08:28:12;;;;;;;12.70;11.40;;;;;;;29.48;89.24;101261.34;109908;1242;61480;-77
2023/08/22 08:30:41;;;;;;;14.70;11.40;;;;;;;29.53;88.53;101257.45;109892;1241;69036;-77
2023/08/22 08:33:10;;;;;;;14.50;11.30;;;;;;;29.60;87.02;101258.67;109885;1241;64522;-77
2023/08/22 08:35:39;;;;;;;14.70;11.50;;;;;;;29.67;86.67;101252.45;110172;1237;60146;-78
2023/08/22 08:38:07;;;;;;;11.60;10.40;;;;;;;29.88;85.04;101253.71;110178;1239;58285;-77
2023/08/22 08:40:39;;;;;;;13.00;9.70;;;;;;;29.90;84.17;101256.80;109939;1241;68081;-78
2023/08/22 08:43:08;;;;;;;11.00;9.80;;;;;;;29.95;83.08;101258.11;110096;1238;60895;-77
2023/08/22 08:45:39;;;;;;;13.30;10.70;;;;;;;29.97;83.26;101251.75;110075;1239;58964;-78
2023/08/22 08:48:08;;;;;;;13.70;11.10;;;;;;;29.96;83.06;101251.72;109932;1239;71472;-78
2023/08/22 08:50:38;;;;;;;13.30;10.60;;;;;;;29.99;82.39;101248.53;109907;1239;61610;-77
2023/08/22 08:53:07;;;;;;;11.60;9.50;;;;;;;29.90;82.60;101251.02;109966;1237;61674;-78
2023/08/22 08:55:39;;;;;;;11.40;10.20;;;;;;;29.77;81.84;101252.05;110026;1239;75043;-77
2023/08/22 08:58:08;;;;;;;12.00;10.00;;;;;;;29.76;82.14;101249.54;110122;1238;61408;-78
2023/08/22 09:00:37;;;;;;;13.50;9.40;;;;;;;29.92;81.19;101249.20;110091;1237;70387;-78
2023/08/22 09:03:06;;;;;;;11.00;9.40;;;;;;;30.07;80.71;101242.17;110069;1239;62791;-78
2023/08/22 09:05:36;;;;;;;11.90;10.40;;;;;;;30.23;79.94;101237.73;110053;1238;61283;-78
2023/08/22 09:08:20;;;;;;;11.00;9.80;;;;;;;30.23;80.38;101238.91;109994;1237;58227;-78
2023/08/22 09:10:53;;;;;;;10.70;9.60;;;;;;;30.29;79.89;101235.90;109952;1237;74175;-78
2023/08/22 09:13:26;;;;;;;11.60;9.70;;;;;;;30.25;79.58;101238.43;110086;1238;70288;-78
2023/08/22 09:16:09;;;;;;;11.80;9.60;;;;;;;30.25;79.54;101226.96;110183;1238;60239;-78
2023/08/22 09:18:44;;;;;;;12.40;9.90;;;;;;;30.32;79.36;101229.45;110183;1238;63707;-78
2023/08/22 09:21:14;;;;;;;11.60;10.30;;;;;;;30.20;78.43;101229.19;110093;1239;61033;-78
2023/08/22 09:23:49;;;;;;;11.10;10.00;;;;;;;30.21;79.24;101229.45;110113;1237;58286;-78
2023/08/22 09:26:24;;;;;;;14.10;10.10;;;;;;;30.16;79.59;101222.35;109969;1239;74374;-78
2023/08/22 09:28:54;;;;;;;12.30;9.90;;;;;;;30.47;78.83;101222.85;109926;1237;61668;-78
2023/08/22 09:31:24;;;;;;;12.70;9.80;;;;;;;30.61;77.13;101218.39;110065;1237;60873;-77
2023/08/22 09:33:53;;;;;;;10.80;9.60;;;;;;;30.57;76.78;101213.35;109770;1238;74440;-77
2023/08/22 09:36:23;;;;;;;13.20;9.60;;;;;;;30.33;77.09;101216.73;110018;1238;60821;-76
2023/08/22 09:38:57;;;;;;;11.50;10.30;;;;;;;30.61;76.70;101221.16;109928;1238;60642;-77
2023/08/22 09:41:28;;;;;;;11.20;9.80;;;;;;;30.88;74.66;101209.06;110023;1238;73987;-77
2023/08/22 09:44:05;;;;;;;10.50;9.40;;;;;;;30.94;74.69;101210.88;109981;1238;60744;-77
2023/08/22 09:46:38;;;;;;;11.00;9.90;;;;;;;30.95;74.36;101205.23;109818;1237;59952;-78
2023/08/22 09:49:14;;;;;;;10.60;9.50;;;;;;;30.92;74.86;101209.70;109894;1238;72939;-78
2023/08/22 09:51:48;;;;;;;13.30;9.80;;;;;;;30.85;75.20;101208.45;110061;1237;58232;-79
2023/08/22 09:54:17;;;;;;;12.90;10.40;;;;;;;30.76;75.34;101213.19;109907;1237;60640;-78
2023/08/22 09:56:46;;;;;;;11.20;10.00;;;;;;;30.77;74.91;101213.39;110018;1237;74858;-78
2023/08/22 09:59:18;;;;;;;9.90;8.90;;;;;;;30.98;74.43;101217.48;109898;1239;72477;-78
2023/08/22 10:01:48;;;;;;;12.00;9.00;;;;;;;31.17;72.30;101217.20;109915;1238;69091;-78
2023/08/22 10:04:18;;;;;;;10.80;8.10;;;;;;;31.05;71.39;101212.87;109838;1237;62268;-77
2023/08/22 10:06:49;;;;;;;9.50;8.40;;;;;;;30.99;71.11;101208.95;109970;1239;57811;-78
2023/08/22 10:09:22;;;;;;;12.10;8.40;;;;;;;31.04;71.27;101208.20;110093;1237;58123;-77
2023/08/22 10:11:58;;;;;;;12.30;8.50;;;;;;;31.20;70.09;101205.19;109968;1238;63754;-78
2023/08/22 10:14:36;;;;;;;9.60;8.60;;;;;;;31.11;69.77;101204.71;110059;1238;63262;-78
2023/08/22 10:17:05;;;;;;;9.90;7.90;;;;;;;31.08;69.20;101204.23;109839;1238;71006;-78
2023/08/22 10:19:36;;;;;;;9.30;8.00;;;;;;;31.25;68.96;101202.29;109818;1238;74399;-78
2023/08/22 10:22:10;;;;;;;11.00;8.60;;;;;;;31.31;69.15;101202.30;109982;1239;58288;-78
2023/08/22 10:24:40;;;;;;;9.90;8.30;;;;;;;31.34;69.57;101197.05;109975;1238;57713;-78
2023/08/22 10:27:16;;;;;;;9.60;8.40;;;;;;;31.16;69.47;101198.12;110088;1237;64485;-77
2023/08/22 10:29:47;;;;;;;11.40;9.40;;;;;;;31.19;69.29;101195.45;110190;1237;62264;-78
2023/08/22 10:32:19;;;;;;;10.30;8.10;;;;;;;31.50;68.21;101195.91;110117;1237;69010;-78
2023/08/22 10:34:55;;;;;;;8.80;7.90;;;;;;;31.67;68.41;101197.69;109995;1239;72904;-78
2023/08/22 10:37:28;;;;;;;8.80;7.70;;;;;;;31.83;66.67;101193.15;110244;1238;58297;-78
2023/08/22 10:40:06;;;;;;;9.60;8.10;;;;;;;31.63;66.65;101190.84;110180;1238;60190;-76
2023/08/22 10:42:37;;;;;;;8.70;7.40;;;;;;;32.44;64.59;101189.80;110179;1237;74148;-76
2023/08/22 10:45:17;;;;;;;9.10;8.20;;;;;;;32.42;62.89;101183.21;110460;1238;61927;-76
2023/08/22 10:48:04;;;;;;;11.70;7.50;;;;;;;32.27;63.16;101184.86;110163;1237;69393;-78
2023/08/22 10:50:35;;;;;;;8.50;7.70;;;;;;;32.25;62.97;101183.95;110217;1237;63049;-76
2023/08/22 10:53:25;;;;;;;8.40;7.00;;;;;;;32.10;63.01;101184.05;110212;1239;57737;-76
2023/08/22 10:55:55;;;;;;;9.40;7.40;;;;;;;31.90;63.00;101183.02;110278;1238;57650;-77
2023/08/22 10:58:42;;;;;;;9.20;7.10;;;;;;;32.34;62.03;101179.81;109872;1237;63886;-77
2023/08/22 11:01:14;;;;;;;8.90;7.10;;;;;;;32.87;60.74;101174.09;110143;1237;60738;-77
2023/08/22 11:03:46;;;;;;;8.70;7.30;;;;;;;32.99;58.85;101175.31;110224;1236;70448;-77
2023/08/22 11:06:19;;;;;;;7.80;7.10;;;;;;;33.35;58.14;101175.39;110107;1237;64773;-78
2023/08/22 11:08:48;;;;;;;8.30;6.80;;;;;;;33.59;57.27;101175.44;110233;1237;61508;-77
2023/08/22 11:11:19;;;;;;;9.10;7.70;;;;;;;33.71;56.33;101179.42;109991;1237;61377;-78